Greenbrier, Indiana
Current Conditions -  °F | °C
As of 9:54 PM on Monday 20 Oct 2014 (Local Time) from KEVV Reporting Station
Clear Clear  
Wind Chill: 60°   Ceiling: Unl
Heat Index: 60°   Visibility: 10mi
Dew Point: 44°   Wind: 5mph
Humidity: 55%   Direction: 310°NW
Pressure: 29.99"   Gusts: NA
Location:  38.0544°N, 87.2562°W
Report Text: KEVV 210254Z 31004KT 10SM CLR 16/07 A2999 RMK AO2 SLP152 T01560067 51018
Loading
Personal Weather Stations






























Interactive Weather Map
Tropical Storm Tracking
New forecast layout! Learn more

10-Day Weather Forecast

Advertisements
Track Severe Weather on mobile